Time;durP1;ratioP1;P1;durP2;ratioP2;P2;SDS_P1;SDS_P2;PMS_P1;PMS_P2;Temp;Humidity;BMP_temperature;BMP_pressure;BME280_temperature;BME280_humidity;BME280_pressure;Samples;Min_cycle;Max_cycle;Signal;HPM_P1;HPM_P2
2023/04/07 00:01:49;;;;;;;3.00;1.50;;;;;;;5.75;81.99;98478.88;105700;1253;74407;-23
2023/04/07 00:04:19;;;;;;;3.40;2.20;;;;;;;6.26;81.62;98482.51;105646;1251;61575;-24
2023/04/07 00:06:48;;;;;;;3.60;1.80;;;;;;;6.53;80.26;98482.64;105600;1251;61849;-23
2023/04/07 00:09:20;;;;;;;4.20;2.10;;;;;;;6.40;79.68;98482.91;105576;1253;75361;-23
2023/04/07 00:11:51;;;;;;;1.80;1.40;;;;;;;6.13;80.02;98483.45;105548;1256;75747;-23
2023/04/07 00:14:20;;;;;;;4.20;2.60;;;;;;;5.89;80.75;98485.15;105572;1256;73988;-23
2023/04/07 00:16:48;;;;;;;2.40;1.60;;;;;;;5.69;81.65;98486.53;105602;1256;63546;-23
2023/04/07 00:19:18;;;;;;;2.10;1.90;;;;;;;6.04;81.75;98486.87;105902;1252;61571;-23
2023/04/07 00:21:47;;;;;;;2.30;1.60;;;;;;;6.31;80.49;98485.61;105920;1256;74208;-23
2023/04/07 00:24:19;;;;;;;3.20;2.20;;;;;;;6.22;80.30;98486.25;105915;1253;75827;-23
2023/04/07 00:27:01;;;;;;;2.70;1.90;;;;;;;6.01;80.77;98494.48;105798;1256;73021;-23
2023/04/07 00:29:30;;;;;;;2.60;2.00;;;;;;;5.80;81.51;98496.42;105655;1252;61722;-23
2023/04/07 00:31:59;;;;;;;1.80;1.40;;;;;;;5.61;82.49;98496.40;105553;1259;61469;-23
2023/04/07 00:34:28;;;;;;;3.10;1.70;;;;;;;5.99;82.12;98492.39;105704;1254;75387;-23
2023/04/07 00:36:57;;;;;;;3.90;2.10;;;;;;;6.33;80.63;98489.61;105573;1256;76715;-23
2023/04/07 00:39:26;;;;;;;3.80;2.00;;;;;;;6.30;80.42;98491.23;105563;1253;74233;-23
2023/04/07 00:41:55;;;;;;;2.90;2.20;;;;;;;6.11;80.91;98494.13;105526;1255;61719;-23
2023/04/07 00:44:23;;;;;;;2.90;2.00;;;;;;;5.81;81.41;98494.48;105583;1253;61798;-23
2023/04/07 00:46:52;;;;;;;3.80;1.40;;;;;;;5.59;81.91;98491.36;105597;1256;74293;-23
2023/04/07 00:49:27;;;;;;;1.90;1.60;;;;;;;5.91;82.47;98494.66;105738;1251;75683;-23
2023/04/07 00:51:56;;;;;;;2.80;2.10;;;;;;;6.27;80.80;98493.33;105516;1253;74168;-23
2023/04/07 00:54:26;;;;;;;3.80;1.80;;;;;;;6.22;80.07;98494.22;105458;1258;61193;-23
2023/04/07 00:56:56;;;;;;;2.20;1.80;;;;;;;5.98;80.54;98495.03;105507;1257;61844;-23
2023/04/07 00:59:25;;;;;;;3.90;2.40;;;;;;;5.71;81.69;98496.40;105547;1258;74238;-23
2023/04/07 01:02:10;;;;;;;3.80;1.80;;;;;;;5.47;82.58;98498.91;105546;1253;74720;-23
2023/04/07 01:04:46;;;;;;;2.50;2.00;;;;;;;5.82;82.99;98500.08;105591;1253;73147;-23
2023/04/07 01:07:18;;;;;;;3.10;2.40;;;;;;;6.11;81.71;98499.50;105329;1253;61733;-23
2023/04/07 01:10:01;;;;;;;2.50;1.90;;;;;;;6.00;81.59;98498.81;105394;1258;61893;-23
2023/04/07 01:12:51;;;;;;;4.20;2.70;;;;;;;5.79;82.25;98502.69;105538;1253;75373;-23
2023/04/07 01:15:22;;;;;;;3.90;2.60;;;;;;;5.50;83.18;98506.60;105685;1253;75793;-23
2023/04/07 01:17:58;;;;;;;3.80;2.50;;;;;;;5.39;84.02;98508.19;105725;1256;73007;-23
2023/04/07 01:20:27;;;;;;;4.90;2.40;;;;;;;5.85;82.67;98507.27;105678;1261;62191;-23
2023/04/07 01:23:03;;;;;;;2.60;2.00;;;;;;;5.95;81.00;98503.64;105688;1255;61588;-23
2023/04/07 01:25:51;;;;;;;3.40;1.60;;;;;;;5.72;80.57;98510.46;105632;1253;75350;-23
2023/04/07 01:28:52;;;;;;;4.80;1.70;;;;;;;5.41;81.63;98514.80;105758;1259;75813;-23
2023/04/07 01:31:21;;;;;;;1.80;1.50;;;;;;;5.12;82.66;98511.74;105568;1253;74156;-23
2023/04/07 01:33:52;;;;;;;1.60;1.30;;;;;;;5.39;82.52;98508.73;105584;1253;61148;-23
2023/04/07 01:36:21;;;;;;;3.20;1.70;;;;;;;5.61;81.42;98510.18;105743;1258;61680;-24
2023/04/07 01:38:50;;;;;;;3.20;1.40;;;;;;;5.43;81.41;98512.94;105707;1253;75347;-23
2023/04/07 01:41:20;;;;;;;2.10;1.60;;;;;;;5.17;82.47;98516.95;105734;1257;74986;-23
2023/04/07 01:43:48;;;;;;;2.80;1.80;;;;;;;4.96;83.08;98518.87;105561;1254;74188;-24
2023/04/07 01:46:17;;;;;;;1.70;1.20;;;;;;;5.21;83.55;98524.05;105803;1253;61819;-24
2023/04/07 01:48:46;;;;;;;2.00;1.60;;;;;;;5.52;82.13;98529.20;105552;1253;60992;-23
2023/04/07 01:51:17;;;;;;;1.80;1.40;;;;;;;5.47;81.77;98523.50;105469;1254;75410;-23
2023/04/07 01:53:46;;;;;;;2.80;1.80;;;;;;;5.28;82.10;98527.92;105431;1259;75917;-23
2023/04/07 01:56:15;;;;;;;2.80;1.80;;;;;;;5.05;82.78;98530.11;105353;1253;73931;-23
2023/04/07 01:58:47;;;;;;;2.70;1.60;;;;;;;4.98;83.83;98532.30;105358;1258;62117;-23
2023/04/07 02:01:19;;;;;;;1.90;1.40;;;;;;;5.44;83.10;98535.60;105636;1253;61859;-23
2023/04/07 02:04:07;;;;;;;1.10;0.90;;;;;;;5.48;81.51;98535.33;105672;1253;75244;-23
2023/04/07 02:06:48;;;;;;;1.00;0.80;;;;;;;5.12;81.67;98539.98;105763;1253;75919;-23
2023/04/07 02:09:19;;;;;;;0.90;0.50;;;;;;;4.77;82.48;98537.45;105680;1253;74620;-23
2023/04/07 02:11:48;;;;;;;1.50;0.90;;;;;;;4.53;83.63;98539.16;105790;1252;62476;-23
2023/04/07 02:14:19;;;;;;;1.10;1.00;;;;;;;4.81;83.54;98540.28;105763;1253;61240;-23
2023/04/07 02:16:57;;;;;;;2.40;1.20;;;;;;;4.83;82.08;98541.02;105550;1254;75208;-23
2023/04/07 02:19:26;;;;;;;4.20;2.80;;;;;;;4.65;82.20;98542.52;105633;1253;75805;-23
2023/04/07 02:21:55;;;;;;;3.70;2.50;;;;;;;4.38;82.90;98545.67;105537;1253;73258;-23
2023/04/07 02:24:25;;;;;;;7.40;5.50;;;;;;;4.31;83.68;98543.83;105823;1253;61698;-23
2023/04/07 02:26:53;;;;;;;7.10;5.80;;;;;;;4.65;82.89;98548.56;105595;1257;62066;-23
2023/04/07 02:29:22;;;;;;;4.70;2.60;;;;;;;4.69;82.26;98549.17;105631;1254;73295;-23
2023/04/07 02:31:50;;;;;;;1.80;1.40;;;;;;;4.48;82.46;98547.57;105827;1253;75826;-23
2023/04/07 02:34:19;;;;;;;2.30;1.40;;;;;;;4.23;83.41;98553.44;105811;1253;74118;-23
2023/04/07 02:36:47;;;;;;;5.00;1.20;;;;;;;4.21;84.00;98553.23;105502;1259;62811;-23
2023/04/07 02:39:16;;;;;;;2.20;1.30;;;;;;;4.58;83.02;98555.20;105609;1259;61344;-23
2023/04/07 02:41:45;;;;;;;2.40;1.80;;;;;;;4.64;82.29;98551.02;105542;1254;75327;-23
2023/04/07 02:44:13;;;;;;;7.40;3.40;;;;;;;4.45;82.59;98557.23;105738;1253;75819;-23
2023/04/07 02:46:43;;;;;;;8.40;4.00;;;;;;;4.22;83.16;98559.02;105632;1255;73965;-24
2023/04/07 02:49:12;;;;;;;15.50;5.60;;;;;;;4.13;83.79;98564.23;105536;1253;61753;-23
2023/04/07 02:51:41;;;;;;;21.40;7.90;;;;;;;4.60;82.95;98564.89;105554;1259;61711;-23
2023/04/07 02:54:09;;;;;;;29.30;9.60;;;;;;;4.73;81.12;98564.20;105669;1253;75182;-23
2023/04/07 02:56:39;;;;;;;36.40;10.10;;;;;;;4.57;80.91;98574.16;105551;1253;75794;-23
2023/04/07 02:59:15;;;;;;;13.40;5.70;;;;;;;4.33;81.61;98577.23;105666;1254;74203;-24
2023/04/07 03:01:46;;;;;;;6.80;2.80;;;;;;;4.04;82.24;98574.56;105693;1257;61270;-24
2023/04/07 03:04:15;;;;;;;9.50;5.90;;;;;;;4.13;82.49;98578.44;105804;1253;61060;-23
2023/04/07 03:06:44;;;;;;;7.90;5.00;;;;;;;4.37;81.29;98579.79;105681;1252;75449;-23
2023/04/07 03:09:15;;;;;;;5.60;4.40;;;;;;;4.29;81.11;98581.93;105403;1256;74849;-23
2023/04/07 03:11:44;;;;;;;8.60;5.80;;;;;;;4.12;81.64;98583.84;105730;1253;74213;-24
2023/04/07 03:14:13;;;;;;;7.90;4.80;;;;;;;3.91;82.28;98585.66;105692;1254;61200;-23
2023/04/07 03:16:49;;;;;;;6.70;3.60;;;;;;;4.11;82.38;98587.70;105658;1255;61862;-24
2023/04/07 03:19:21;;;;;;;8.10;3.80;;;;;;;4.50;81.01;98590.80;105892;1254;75088;-23
2023/04/07 03:21:50;;;;;;;5.20;2.60;;;;;;;4.51;80.37;98595.83;105884;1256;74979;-24
2023/04/07 03:24:20;;;;;;;3.20;1.80;;;;;;;4.32;80.57;98597.89;105904;1253;74267;-24
2023/04/07 03:26:50;;;;;;;4.90;2.10;;;;;;;4.06;81.21;98599.86;105902;1253;62071;-24
2023/04/07 03:29:24;;;;;;;5.30;2.60;;;;;;;3.88;82.15;98599.22;105929;1254;61064;-24
2023/04/07 03:31:54;;;;;;;30.70;9.70;;;;;;;4.29;81.88;98605.98;105872;1257;75396;-24
2023/04/07 03:34:24;;;;;;;67.20;18.50;;;;;;;4.52;80.45;98611.12;105875;1256;75666;-23
2023/04/07 03:36:53;;;;;;;55.10;14.80;;;;;;;4.36;80.42;98612.45;105911;1253;74397;-24
2023/04/07 03:39:21;;;;;;;22.00;5.70;;;;;;;4.15;80.94;98617.70;105909;1252;61750;-24
2023/04/07 03:41:50;;;;;;;5.50;2.70;;;;;;;3.90;81.56;98617.29;105889;1259;61706;-24
2023/04/07 03:44:20;;;;;;;8.40;3.20;;;;;;;4.10;82.09;98617.66;105878;1254;75395;-24
2023/04/07 03:46:49;;;;;;;7.80;2.90;;;;;;;4.53;80.59;98624.95;105853;1255;76040;-24
2023/04/07 03:49:18;;;;;;;8.80;3.10;;;;;;;4.58;79.78;98628.80;105618;1257;72079;-24
2023/04/07 03:51:49;;;;;;;5.80;2.90;;;;;;;4.36;80.07;98631.50;105737;1252;61066;-24
2023/04/07 03:54:18;;;;;;;4.10;2.70;;;;;;;4.12;80.75;98636.08;105586;1256;61608;-24
2023/04/07 03:56:47;;;;;;;30.70;9.30;;;;;;;3.89;81.63;98640.91;105689;1253;75179;-24
2023/04/07 03:59:21;;;;;;;56.70;15.40;;;;;;;4.20;81.51;98641.08;105559;1255;75805;-24
2023/04/07 04:01:58;;;;;;;17.60;5.10;;;;;;;4.46;80.45;98643.41;105599;1254;74216;-24
2023/04/07 04:04:28;;;;;;;17.60;6.00;;;;;;;4.30;80.29;98648.56;105852;1256;61247;-24
2023/04/07 04:06:57;;;;;;;5.90;4.00;;;;;;;4.05;81.33;98655.06;105894;1255;62001;-24
2023/04/07 04:09:40;;;;;;;31.30;10.00;;;;;;;3.73;82.83;98652.16;104361;1254;2131850;-24
2023/04/07 04:12:10;;;;;;;8.50;5.40;;;;;;;3.89;83.32;98658.63;105918;1256;75369;-24
2023/04/07 04:14:44;;;;;;;9.90;5.50;;;;;;;3.96;82.78;98662.83;105905;1255;74046;-23
2023/04/07 04:17:15;;;;;;;10.90;6.20;;;;;;;3.83;82.75;98666.52;105900;1256;61474;-24
2023/04/07 04:19:46;;;;;;;44.20;17.10;;;;;;;3.65;83.19;98675.46;105946;1256;61151;-24
2023/04/07 04:22:22;;;;;;;15.30;7.60;;;;;;;3.62;83.71;98677.19;105825;1254;75274;-25
2023/04/07 04:24:54;;;;;;;13.20;7.80;;;;;;;3.99;82.43;98681.21;105656;1259;75533;-24
2023/04/07 04:27:25;;;;;;;14.20;8.80;;;;;;;4.03;81.83;98682.17;105909;1252;74005;-24
2023/04/07 04:30:01;;;;;;;21.00;11.10;;;;;;;3.83;81.93;98687.09;105875;1257;61638;-24
2023/04/07 04:32:40;;;;;;;7.80;5.60;;;;;;;3.52;82.82;98689.75;105524;1259;61710;-24
2023/04/07 04:35:09;;;;;;;13.80;6.60;;;;;;;3.59;82.74;98689.54;105868;1256;75338;-24
2023/04/07 04:37:45;;;;;;;11.00;6.90;;;;;;;3.82;80.86;98691.97;105814;1258;75595;-24
2023/04/07 04:40:17;;;;;;;10.70;6.60;;;;;;;3.74;80.21;98691.07;105879;1255;74223;-24
2023/04/07 04:42:48;;;;;;;7.50;5.90;;;;;;;3.50;80.44;98698.81;105895;1253;61710;-24
2023/04/07 04:45:18;;;;;;;8.70;4.10;;;;;;;3.28;81.45;98704.88;105796;1254;61048;-25
2023/04/07 04:47:51;;;;;;;13.70;5.80;;;;;;;3.51;81.47;98711.95;105749;1253;75186;-24
2023/04/07 04:50:19;;;;;;;15.20;9.40;;;;;;;3.70;80.32;98706.71;105667;1257;74815;-24
2023/04/07 04:52:48;;;;;;;10.00;6.50;;;;;;;3.55;79.92;98714.12;105709;1254;74144;-24
2023/04/07 04:55:22;;;;;;;8.10;6.30;;;;;;;3.33;80.60;98727.74;105799;1254;61915;-23
2023/04/07 04:57:52;;;;;;;7.20;4.70;;;;;;;3.15;81.64;98726.69;105891;1254;61173;-24
2023/04/07 05:00:35;;;;;;;13.70;8.50;;;;;;;3.39;81.42;98739.23;105607;1253;75175;-24
2023/04/07 05:03:07;;;;;;;12.00;8.20;;;;;;;3.45;80.47;98746.14;105514;1256;76305;-24
2023/04/07 05:05:38;;;;;;;7.20;4.70;;;;;;;3.21;80.70;98746.06;105567;1256;74629;-23
2023/04/07 05:08:09;;;;;;;6.40;4.00;;;;;;;2.94;81.54;98750.64;105548;1254;61048;-24
2023/04/07 05:10:39;;;;;;;5.40;4.40;;;;;;;3.01;82.09;98755.91;105460;1260;62346;-24
2023/04/07 05:13:11;;;;;;;7.40;5.10;;;;;;;3.37;80.38;98757.35;105558;1254;75334;-24
2023/04/07 05:15:41;;;;;;;5.40;4.20;;;;;;;3.39;79.65;98756.56;105849;1254;75911;-23
2023/04/07 05:18:12;;;;;;;3.70;3.10;;;;;;;3.13;80.04;98766.59;105883;1254;73063;-24
2023/04/07 05:20:43;;;;;;;6.10;4.10;;;;;;;2.94;80.65;98767.46;105783;1255;61215;-24
2023/04/07 05:23:15;;;;;;;9.20;3.60;;;;;;;2.88;81.43;98772.91;105649;1262;61888;-24
2023/04/07 05:25:46;;;;;;;5.40;3.70;;;;;;;3.26;80.28;98771.37;105951;1257;75566;-24
2023/04/07 05:28:15;;;;;;;5.00;3.50;;;;;;;3.34;78.62;98777.28;105770;1259;75923;-24
2023/04/07 05:30:49;;;;;;;3.70;3.10;;;;;;;3.21;78.82;98779.02;105797;1254;73621;-24
2023/04/07 05:33:20;;;;;;;4.90;3.20;;;;;;;3.01;79.10;98785.23;105566;1256;61064;-24
2023/04/07 05:35:52;;;;;;;5.60;3.40;;;;;;;2.88;80.15;98789.06;105628;1256;61426;-24
2023/04/07 05:38:21;;;;;;;4.30;3.10;;;;;;;3.24;80.59;98789.52;105613;1253;75126;-24
2023/04/07 05:40:50;;;;;;;5.70;3.20;;;;;;;3.73;77.89;98786.63;105887;1256;75870;-23
2023/04/07 05:43:32;;;;;;;4.70;2.60;;;;;;;3.86;76.31;98784.64;105654;1257;74192;-24
2023/04/07 05:46:00;;;;;;;1.90;1.50;;;;;;;3.75;76.62;98789.59;105550;1259;62196;-24
2023/04/07 05:48:30;;;;;;;6.30;4.10;;;;;;;3.60;76.94;98787.33;105540;1252;61155;-24
2023/04/07 05:50:59;;;;;;;5.10;3.50;;;;;;;3.46;77.73;98795.66;105830;1255;74395;-24
2023/04/07 05:53:28;;;;;;;5.50;2.30;;;;;;;3.71;78.24;98795.13;105884;1254;75836;-24
2023/04/07 05:55:57;;;;;;;3.50;2.50;;;;;;;4.22;75.85;98793.20;105829;1256;73245;-24
2023/04/07 05:58:40;;;;;;;5.20;3.80;;;;;;;4.41;74.92;98797.77;105724;1260;61921;-23
2023/04/07 06:01:10;;;;;;;4.10;3.10;;;;;;;4.44;75.00;98794.67;105875;1255;61033;-23
2023/04/07 06:03:39;;;;;;;3.00;2.20;;;;;;;4.32;75.34;98799.86;105705;1258;75444;-23
2023/04/07 06:06:12;;;;;;;5.10;3.30;;;;;;;4.14;75.01;98800.19;105688;1259;75808;-24
2023/04/07 06:08:40;;;;;;;4.00;2.00;;;;;;;3.93;75.51;98801.09;105744;1256;73975;-24
2023/04/07 06:11:10;;;;;;;3.70;2.70;;;;;;;4.17;75.99;98796.94;105870;1256;61109;-23
2023/04/07 06:13:39;;;;;;;3.40;2.50;;;;;;;4.79;74.54;98805.12;105915;1252;61049;-23
2023/04/07 06:16:11;;;;;;;4.40;2.90;;;;;;;4.92;72.74;98806.36;105925;1255;75393;-23
2023/04/07 06:18:41;;;;;;;3.40;2.70;;;;;;;4.71;73.07;98810.61;105777;1253;75873;-23
2023/04/07 06:21:09;;;;;;;5.00;2.90;;;;;;;4.54;74.24;98818.66;105582;1256;73166;-24
2023/04/07 06:23:42;;;;;;;7.60;4.20;;;;;;;4.36;74.76;98822.77;105530;1251;61062;-24
2023/04/07 06:26:11;;;;;;;8.40;6.30;;;;;;;4.22;74.95;98822.61;105828;1256;62074;-23
2023/04/07 06:28:39;;;;;;;4.40;3.20;;;;;;;4.41;75.90;98824.22;105765;1251;74612;-24
2023/04/07 06:31:08;;;;;;;5.70;4.10;;;;;;;4.91;73.92;98830.35;105567;1256;75942;-23
2023/04/07 06:33:38;;;;;;;3.50;2.70;;;;;;;4.93;72.82;98831.63;105527;1255;73253;-24
2023/04/07 06:36:07;;;;;;;6.90;3.60;;;;;;;4.74;73.37;98835.87;105656;1254;61813;-24
2023/04/07 06:38:37;;;;;;;9.90;2.40;;;;;;;4.44;73.38;98836.09;105452;1259;61733;-23
2023/04/07 06:41:07;;;;;;;3.10;2.40;;;;;;;4.21;74.49;98840.88;105665;1254;74685;-23
2023/04/07 06:43:36;;;;;;;4.70;3.20;;;;;;;4.11;75.41;98846.27;105584;1254;76942;-24
2023/04/07 06:46:08;;;;;;;3.20;2.30;;;;;;;4.23;76.08;98843.00;105533;1256;73931;-24
2023/04/07 06:48:37;;;;;;;3.10;1.90;;;;;;;4.84;74.69;98848.99;105724;1255;61660;-24
2023/04/07 06:51:06;;;;;;;3.60;2.50;;;;;;;5.14;72.49;98848.39;105628;1255;61834;-24
2023/04/07 06:53:35;;;;;;;2.50;2.00;;;;;;;4.99;71.77;98851.69;105563;1257;75412;-24
2023/04/07 06:56:03;;;;;;;3.20;2.40;;;;;;;4.83;72.86;98860.23;105853;1256;75884;-24
2023/04/07 06:58:33;;;;;;;3.30;2.10;;;;;;;4.72;73.42;98861.60;105848;1254;73686;-24
2023/04/07 07:01:08;;;;;;;4.30;2.60;;;;;;;4.63;74.17;98869.37;105709;1253;61091;-24
2023/04/07 07:11:21;;;;;;;4.90;3.10;;;;;;;5.15;73.77;98880.69;102615;1292;598614;-25
2023/04/07 07:13:50;;;;;;;4.80;3.60;;;;;;;4.94;73.10;98882.29;104878;1270;61944;-25
2023/04/07 07:16:18;;;;;;;4.50;3.40;;;;;;;4.66;73.96;98885.70;104824;1272;61894;-24
2023/04/07 07:18:54;;;;;;;4.40;2.80;;;;;;;4.58;75.44;98891.99;105600;1257;73564;-24
2023/04/07 07:21:24;;;;;;;4.90;3.50;;;;;;;4.87;74.88;98890.96;105641;1256;74860;-24
2023/04/07 07:23:53;;;;;;;3.90;2.50;;;;;;;5.28;73.82;98896.58;104030;1254;2177740;-26
2023/04/07 07:26:22;;;;;;;4.50;3.80;;;;;;;5.40;72.98;98898.39;105557;1253;61972;-22
2023/04/07 07:28:50;;;;;;;7.50;3.80;;;;;;;5.19;72.50;98889.72;105701;1255;61863;-23
2023/04/07 07:31:19;;;;;;;4.60;3.00;;;;;;;4.92;73.74;98904.61;105699;1254;72919;-22
2023/04/07 07:33:50;;;;;;;5.80;3.90;;;;;;;4.74;74.08;98907.55;105670;1259;74959;-25
2023/04/07 07:36:19;;;;;;;4.10;2.70;;;;;;;4.62;74.94;98905.17;105559;1254;75065;-25
2023/04/07 07:38:50;;;;;;;2.30;2.10;;;;;;;4.93;74.39;98909.55;105708;1253;61135;-25
2023/04/07 07:41:19;;;;;;;8.20;4.40;;;;;;;5.24;73.56;98914.72;105678;1253;61103;-24
2023/04/07 07:43:49;;;;;;;3.40;2.60;;;;;;;5.31;72.78;98912.77;105709;1259;73521;-23
2023/04/07 07:46:17;;;;;;;6.00;4.00;;;;;;;5.24;72.85;98922.14;105714;1254;75581;-23
2023/04/07 07:48:48;;;;;;;5.50;4.00;;;;;;;5.12;73.49;98923.73;105653;1254;74166;-23
2023/04/07 07:51:17;;;;;;;2.10;1.70;;;;;;;5.05;74.90;98927.41;105659;1255;61157;-25
2023/04/07 07:53:45;;;;;;;3.60;2.50;;;;;;;5.34;74.58;98930.78;105702;1257;61103;-23
2023/04/07 07:56:14;;;;;;;5.70;3.80;;;;;;;5.79;72.06;98928.55;105700;1254;74671;-23
2023/04/07 07:58:43;;;;;;;6.30;3.80;;;;;;;5.84;71.36;98934.95;105641;1257;75976;-24
2023/04/07 08:01:16;;;;;;;5.80;3.70;;;;;;;5.73;71.41;98936.65;105620;1259;74279;-22
2023/04/07 08:03:46;;;;;;;3.90;2.80;;;;;;;5.67;72.48;98940.33;105692;1254;62048;-25
2023/04/07 08:06:16;;;;;;;7.40;4.30;;;;;;;5.47;72.00;98938.64;105680;1257;61671;-23
2023/04/07 08:08:45;;;;;;;4.90;3.10;;;;;;;5.41;73.48;98943.31;105649;1254;74516;-25
2023/04/07 08:11:14;;;;;;;5.30;2.90;;;;;;;5.45;73.91;98948.07;105578;1254;75955;-22
2023/04/07 08:13:45;;;;;;;5.40;3.30;;;;;;;5.71;73.46;98951.45;105692;1253;73003;-25
2023/04/07 08:16:15;;;;;;;6.60;3.60;;;;;;;6.04;72.91;98959.54;105628;1253;61445;-22
2023/04/07 08:18:43;;;;;;;4.40;3.20;;;;;;;6.12;71.58;98958.91;105629;1253;61806;-24
2023/04/07 08:21:12;;;;;;;8.90;4.20;;;;;;;5.99;71.16;98960.19;105698;1254;75084;-24
2023/04/07 08:23:41;;;;;;;5.90;4.20;;;;;;;5.89;72.63;98968.58;105738;1253;75833;-23
2023/04/07 08:26:10;;;;;;;6.20;4.00;;;;;;;5.80;72.90;98966.02;105712;1253;74152;-23
2023/04/07 08:28:40;;;;;;;3.10;2.20;;;;;;;5.66;72.46;98962.96;105564;1254;61232;-23
2023/04/07 08:31:09;;;;;;;3.00;2.30;;;;;;;5.57;74.24;98968.34;105687;1254;61831;-24
2023/04/07 08:33:38;;;;;;;3.00;2.40;;;;;;;6.00;73.97;98978.56;105591;1254;74651;-23
2023/04/07 08:36:06;;;;;;;3.00;2.50;;;;;;;6.55;72.36;98978.20;105596;1253;75891;-23
2023/04/07 08:38:35;;;;;;;2.70;2.30;;;;;;;6.72;70.84;98976.02;105702;1254;74209;-23
2023/04/07 08:41:07;;;;;;;2.80;2.30;;;;;;;6.68;70.08;98979.56;105680;1257;62087;-23
2023/04/07 08:43:36;;;;;;;4.00;2.90;;;;;;;6.58;70.95;98977.34;105657;1253;61179;-24
2023/04/07 08:46:08;;;;;;;2.90;2.50;;;;;;;6.51;71.87;98977.94;105715;1258;74490;-23
2023/04/07 08:48:37;;;;;;;2.50;2.20;;;;;;;6.50;72.41;98979.05;105640;1253;75822;-23
2023/04/07 08:51:07;;;;;;;2.00;1.80;;;;;;;6.48;71.91;98981.42;105728;1254;74188;-23
2023/04/07 08:53:51;;;;;;;2.80;2.20;;;;;;;6.68;71.50;98985.98;105696;1259;61241;-23
2023/04/07 08:56:20;;;;;;;;;;;;;;;7.19;69.11;98983.77;105643;1259;61376;-23
2023/04/07 08:58:48;;;;;;;4.60;2.60;;;;;;;7.26;68.59;98987.77;105603;1254;74565;-23
2023/04/07 09:01:17;;;;;;;4.40;3.30;;;;;;;7.23;69.08;98989.20;105552;1259;75633;-23
2023/04/07 09:03:47;;;;;;;4.90;3.00;;;;;;;7.15;69.51;98995.08;105491;1253;74203;-24
2023/04/07 09:06:16;;;;;;;2.70;2.50;;;;;;;7.03;69.64;98993.84;105533;1258;62165;-23
2023/04/07 09:08:45;;;;;;;3.60;2.00;;;;;;;6.86;69.24;98993.91;105616;1259;61064;-25
2023/04/07 09:11:13;;;;;;;2.90;2.50;;;;;;;6.53;69.44;98996.23;105603;1253;74423;-23
2023/04/07 09:13:42;;;;;;;2.90;2.20;;;;;;;6.31;70.89;99003.55;105745;1254;75656;-24
2023/04/07 09:16:12;;;;;;;1.60;1.40;;;;;;;6.19;72.04;99013.60;105687;1253;74184;-23
2023/04/07 09:18:59;;;;;;;2.50;2.10;;;;;;;6.69;71.44;99018.87;105600;1253;61945;-24
2023/04/07 09:21:51;;;;;;;3.20;2.70;;;;;;;7.10;70.09;99024.44;105663;1259;61560;-23
2023/04/07 09:24:22;;;;;;;2.50;2.10;;;;;;;7.12;69.29;99022.56;105502;1254;73608;-23
2023/04/07 09:26:51;;;;;;;3.80;3.00;;;;;;;7.07;68.83;99023.63;105487;1254;74662;-24
2023/04/07 09:29:20;;;;;;;3.30;2.50;;;;;;;7.00;69.06;99026.11;105222;1254;74035;-24
2023/04/07 09:31:50;;;;;;;6.60;3.50;;;;;;;6.88;69.46;99022.42;105501;1259;62004;-24
2023/04/07 09:34:33;;;;;;;2.80;1.90;;;;;;;6.83;70.05;99024.63;105467;1259;61141;-24
2023/04/07 09:37:02;;;;;;;5.20;3.90;;;;;;;6.78;69.62;99026.40;105609;1259;73419;-25
2023/04/07 09:39:31;;;;;;;5.70;3.90;;;;;;;6.76;71.11;99030.62;105707;1253;74826;-24
2023/04/07 09:42:05;;;;;;;3.90;3.00;;;;;;;6.90;70.63;99029.18;105713;1257;74228;-24
2023/04/07 09:44:39;;;;;;;5.80;3.70;;;;;;;7.30;69.25;99034.50;105521;1253;61738;-24
2023/04/07 09:47:07;;;;;;;4.40;3.30;;;;;;;7.53;68.85;99037.40;105629;1254;61897;-24
2023/04/07 09:49:49;;;;;;;7.60;5.30;;;;;;;7.51;69.00;99040.66;105538;1254;74310;-25
2023/04/07 09:52:19;;;;;;;5.90;3.70;;;;;;;7.51;69.67;99039.97;105658;1254;74857;-24
2023/04/07 09:54:48;;;;;;;4.90;3.30;;;;;;;7.35;69.24;99047.61;105697;1253;73971;-24
2023/04/07 09:57:18;;;;;;;6.50;4.40;;;;;;;7.15;70.39;99043.57;105688;1253;61604;-24
2023/04/07 09:59:50;;;;;;;4.20;3.00;;;;;;;7.10;71.03;99048.04;105657;1253;61787;-24
2023/04/07 10:02:18;;;;;;;3.10;2.60;;;;;;;7.02;70.13;99046.55;105717;1259;73516;-24
2023/04/07 10:04:47;;;;;;;4.30;2.80;;;;;;;6.85;70.49;99046.27;105668;1258;76031;-24
2023/04/07 10:07:15;;;;;;;4.90;3.60;;;;;;;7.21;70.74;99052.02;105685;1253;73207;-24
2023/04/07 10:09:46;;;;;;;6.70;3.60;;;;;;;7.57;69.43;99055.80;105662;1253;61793;-24
2023/04/07 10:12:14;;;;;;;6.30;3.20;;;;;;;7.61;68.49;99052.44;105661;1253;61639;-24
2023/04/07 10:14:45;;;;;;;5.60;2.70;;;;;;;7.47;68.79;99058.54;105677;1253;74446;-24
2023/04/07 10:17:18;;;;;;;6.70;3.70;;;;;;;7.37;69.47;99054.55;105690;1259;74297;-24
2023/04/07 10:19:46;;;;;;;4.80;3.50;;;;;;;7.18;70.45;99058.77;105631;1253;73211;-24
2023/04/07 10:22:15;;;;;;;6.60;4.70;;;;;;;7.10;70.67;99058.80;105531;1253;61991;-24
2023/04/07 10:24:54;;;;;;;7.50;5.20;;;;;;;7.18;71.44;99064.45;105533;1263;61538;-24
2023/04/07 10:27:28;;;;;;;5.20;4.00;;;;;;;7.20;70.27;99063.14;105380;1254;74311;-24
2023/04/07 10:29:57;;;;;;;6.10;3.90;;;;;;;7.48;68.98;99063.31;105631;1259;75384;-24
2023/04/07 10:32:26;;;;;;;7.20;4.30;;;;;;;7.75;67.90;99066.00;105642;1254;73105;-24
2023/04/07 10:34:58;;;;;;;13.30;5.80;;;;;;;7.83;67.82;99064.21;105473;1259;61454;-24
2023/04/07 10:37:26;;;;;;;7.70;5.30;;;;;;;7.79;67.63;99066.59;105516;1261;61911;-24
2023/04/07 10:40:18;;;;;;;6.60;3.50;;;;;;;7.75;69.16;99072.19;105619;1259;74407;-24
2023/04/07 10:42:47;;;;;;;6.20;4.60;;;;;;;7.54;68.18;99074.33;105505;1259;75680;-24
2023/04/07 10:45:15;;;;;;;10.50;6.30;;;;;;;7.36;69.18;99076.24;105691;1254;74333;-24
2023/04/07 10:47:56;;;;;;;6.80;4.80;;;;;;;7.23;69.96;99082.44;105667;1254;61726;-24
2023/04/07 10:50:27;;;;;;;10.20;5.50;;;;;;;7.07;70.29;99078.29;105568;1259;61122;-24
2023/04/07 10:53:12;;;;;;;8.10;4.10;;;;;;;7.02;70.72;99084.14;105551;1254;73539;-24
2023/04/07 10:55:42;;;;;;;7.10;3.70;;;;;;;7.50;69.16;99085.61;105683;1258;76082;-24
2023/04/07 10:58:23;;;;;;;9.40;5.60;;;;;;;7.62;68.29;99087.60;105659;1254;73894;-24
2023/04/07 11:01:11;;;;;;;7.00;5.30;;;;;;;7.62;68.55;99087.63;105692;1254;61263;-24
2023/04/07 11:03:41;;;;;;;8.70;5.80;;;;;;;7.49;67.91;99087.46;105674;1259;61932;-24
2023/04/07 11:06:11;;;;;;;6.30;4.00;;;;;;;7.38;69.08;99093.84;105682;1259;73237;-24
2023/04/07 11:08:41;;;;;;;7.60;4.60;;;;;;;7.35;69.03;99087.34;105688;1259;75861;-24
2023/04/07 11:11:13;;;;;;;8.70;5.80;;;;;;;7.23;69.16;99089.37;105693;1258;74520;-23
2023/04/07 11:13:45;;;;;;;10.30;6.70;;;;;;;7.21;69.45;99087.06;105567;1262;61307;-24
2023/04/07 11:16:15;;;;;;;5.80;3.40;;;;;;;7.34;70.22;99081.02;105685;1259;61091;-23
2023/04/07 11:18:45;;;;;;;5.80;3.80;;;;;;;7.80;68.88;99082.55;105655;1261;73272;-23
2023/04/07 11:21:17;;;;;;;8.40;6.40;;;;;;;8.45;67.00;99081.98;105664;1259;75798;-24
2023/04/07 11:23:45;;;;;;;6.20;5.10;;;;;;;8.77;66.02;99090.80;105611;1261;73836;-24
2023/04/07 11:26:15;;;;;;;8.40;5.30;;;;;;;8.85;64.95;99090.06;105638;1259;61711;-23
2023/04/07 11:28:53;;;;;;;9.00;5.60;;;;;;;8.75;64.88;99086.77;105678;1258;61848;-24
2023/04/07 11:31:30;;;;;;;5.70;4.60;;;;;;;8.65;65.60;99090.14;105664;1253;74460;-23
2023/04/07 11:34:04;;;;;;;7.70;4.80;;;;;;;8.42;65.03;99089.33;105665;1254;74759;-23
2023/04/07 11:36:36;;;;;;;7.00;5.50;;;;;;;8.22;66.84;99091.91;105592;1262;73128;-23
2023/04/07 11:39:16;;;;;;;10.30;7.20;;;;;;;8.10;66.50;99094.50;105628;1262;61132;-23
2023/04/07 11:41:46;;;;;;;10.40;6.80;;;;;;;8.01;67.33;99099.79;105559;1254;61027;-23
2023/04/07 11:44:15;;;;;;;9.40;6.30;;;;;;;7.99;66.94;99098.52;105668;1254;75549;-24
2023/04/07 11:46:53;;;;;;;9.10;5.90;;;;;;;7.97;66.82;99099.19;105707;1254;74906;-23
2023/04/07 11:49:27;;;;;;;9.50;6.80;;;;;;;7.96;66.74;99098.98;105639;1253;73500;-23
2023/04/07 11:52:06;;;;;;;10.40;7.30;;;;;;;7.90;67.94;99107.64;105526;1254;61904;-23
2023/04/07 11:54:41;;;;;;;8.60;5.70;;;;;;;8.01;68.04;99102.90;105420;1261;61924;-24
2023/04/07 11:57:13;;;;;;;8.80;5.50;;;;;;;7.99;68.00;99106.80;105617;1253;73447;-24
2023/04/07 11:59:42;;;;;;;7.80;5.90;;;;;;;8.08;67.48;99103.11;105674;1253;75930;-23